sensor_id;sensor_type;location;lat;lon;timestamp;P1;durP1;ratioP1;P2;durP2;ratioP2
20441;SDS011;10380;52.102;20.614;2023-04-24T00:01:19;12.87;;;9.33;;
20441;SDS011;10380;52.102;20.614;2023-04-24T00:03:48;13.23;;;10.07;;
20441;SDS011;10380;52.102;20.614;2023-04-24T00:06:15;14.90;;;9.63;;
20441;SDS011;10380;52.102;20.614;2023-04-24T00:08:43;14.67;;;9.80;;
20441;SDS011;10380;52.102;20.614;2023-04-24T00:11:10;10.50;;;8.83;;
20441;SDS011;10380;52.102;20.614;2023-04-24T00:13:38;13.27;;;10.40;;
20441;SDS011;10380;52.102;20.614;2023-04-24T00:16:06;14.47;;;10.57;;
20441;SDS011;10380;52.102;20.614;2023-04-24T00:18:34;12.13;;;9.60;;
20441;SDS011;10380;52.102;20.614;2023-04-24T00:21:01;13.97;;;10.27;;
20441;SDS011;10380;52.102;20.614;2023-04-24T00:23:27;15.00;;;10.73;;
20441;SDS011;10380;52.102;20.614;2023-04-24T00:25:56;16.13;;;10.93;;
20441;SDS011;10380;52.102;20.614;2023-04-24T00:28:22;20.97;;;10.90;;
20441;SDS011;10380;52.102;20.614;2023-04-24T00:30:49;13.90;;;10.17;;
20441;SDS011;10380;52.102;20.614;2023-04-24T00:33:17;14.77;;;9.83;;
20441;SDS011;10380;52.102;20.614;2023-04-24T00:35:44;14.00;;;10.37;;
20441;SDS011;10380;52.102;20.614;2023-04-24T00:38:11;16.37;;;10.97;;
20441;SDS011;10380;52.102;20.614;2023-04-24T00:40:38;14.90;;;10.90;;
20441;SDS011;10380;52.102;20.614;2023-04-24T00:43:05;16.07;;;11.00;;
20441;SDS011;10380;52.102;20.614;2023-04-24T00:45:35;21.03;;;11.60;;
20441;SDS011;10380;52.102;20.614;2023-04-24T00:48:02;20.70;;;11.77;;
20441;SDS011;10380;52.102;20.614;2023-04-24T00:50:31;22.80;;;11.83;;
20441;SDS011;10380;52.102;20.614;2023-04-24T00:52:59;16.37;;;10.60;;
20441;SDS011;10380;52.102;20.614;2023-04-24T00:55:26;13.60;;;11.00;;
20441;SDS011;10380;52.102;20.614;2023-04-24T00:57:53;14.57;;;11.33;;
20441;SDS011;10380;52.102;20.614;2023-04-24T01:00:20;14.33;;;11.07;;
20441;SDS011;10380;52.102;20.614;2023-04-24T01:02:48;15.10;;;10.70;;
20441;SDS011;10380;52.102;20.614;2023-04-24T01:05:16;14.87;;;9.90;;
20441;SDS011;10380;52.102;20.614;2023-04-24T01:07:44;13.43;;;10.90;;
20441;SDS011;10380;52.102;20.614;2023-04-24T01:10:12;15.23;;;10.03;;
20441;SDS011;10380;52.102;20.614;2023-04-24T01:12:41;18.77;;;10.80;;
20441;SDS011;10380;52.102;20.614;2023-04-24T01:15:08;10.03;;;8.97;;
20441;SDS011;10380;52.102;20.614;2023-04-24T01:17:36;14.87;;;11.07;;
20441;SDS011;10380;52.102;20.614;2023-04-24T01:20:03;15.30;;;11.17;;
20441;SDS011;10380;52.102;20.614;2023-04-24T01:22:33;17.37;;;10.30;;
20441;SDS011;10380;52.102;20.614;2023-04-24T01:25:01;14.47;;;11.40;;
20441;SDS011;10380;52.102;20.614;2023-04-24T01:27:30;15.90;;;11.20;;
20441;SDS011;10380;52.102;20.614;2023-04-24T01:29:57;15.30;;;11.33;;
20441;SDS011;10380;52.102;20.614;2023-04-24T01:32:24;14.27;;;10.20;;
20441;SDS011;10380;52.102;20.614;2023-04-24T01:34:54;13.67;;;11.53;;
20441;SDS011;10380;52.102;20.614;2023-04-24T01:37:21;14.67;;;10.50;;
20441;SDS011;10380;52.102;20.614;2023-04-24T01:39:48;26.40;;;14.43;;
20441;SDS011;10380;52.102;20.614;2023-04-24T01:42:15;16.83;;;11.70;;
20441;SDS011;10380;52.102;20.614;2023-04-24T01:44:42;19.43;;;11.53;;
20441;SDS011;10380;52.102;20.614;2023-04-24T01:47:10;19.23;;;12.70;;
20441;SDS011;10380;52.102;20.614;2023-04-24T01:49:38;19.37;;;12.60;;
20441;SDS011;10380;52.102;20.614;2023-04-24T01:52:05;15.07;;;11.50;;
20441;SDS011;10380;52.102;20.614;2023-04-24T01:54:32;19.10;;;13.30;;
20441;SDS011;10380;52.102;20.614;2023-04-24T01:56:59;13.93;;;11.40;;
20441;SDS011;10380;52.102;20.614;2023-04-24T01:59:28;17.23;;;12.30;;
20441;SDS011;10380;52.102;20.614;2023-04-24T02:01:56;17.83;;;12.83;;
20441;SDS011;10380;52.102;20.614;2023-04-24T02:04:23;16.03;;;12.13;;
20441;SDS011;10380;52.102;20.614;2023-04-24T02:06:50;20.37;;;13.00;;
20441;SDS011;10380;52.102;20.614;2023-04-24T02:09:18;25.97;;;14.23;;
20441;SDS011;10380;52.102;20.614;2023-04-24T02:11:45;21.20;;;13.97;;
20441;SDS011;10380;52.102;20.614;2023-04-24T02:14:12;22.60;;;12.13;;
20441;SDS011;10380;52.102;20.614;2023-04-24T02:16:39;22.17;;;13.33;;
20441;SDS011;10380;52.102;20.614;2023-04-24T02:19:06;21.60;;;12.80;;
20441;SDS011;10380;52.102;20.614;2023-04-24T02:21:33;20.47;;;12.67;;
20441;SDS011;10380;52.102;20.614;2023-04-24T02:24:01;17.33;;;13.40;;
20441;SDS011;10380;52.102;20.614;2023-04-24T02:26:28;17.63;;;12.47;;
20441;SDS011;10380;52.102;20.614;2023-04-24T02:28:57;19.17;;;11.87;;
20441;SDS011;10380;52.102;20.614;2023-04-24T02:31:24;19.80;;;13.23;;
20441;SDS011;10380;52.102;20.614;2023-04-24T02:33:51;22.33;;;13.70;;
20441;SDS011;10380;52.102;20.614;2023-04-24T02:36:18;21.67;;;12.43;;
20441;SDS011;10380;52.102;20.614;2023-04-24T02:38:45;18.97;;;12.50;;
20441;SDS011;10380;52.102;20.614;2023-04-24T02:41:12;23.83;;;12.93;;
20441;SDS011;10380;52.102;20.614;2023-04-24T02:43:39;19.70;;;12.03;;
20441;SDS011;10380;52.102;20.614;2023-04-24T02:46:06;19.30;;;12.33;;
20441;SDS011;10380;52.102;20.614;2023-04-24T02:48:33;15.87;;;11.67;;
20441;SDS011;10380;52.102;20.614;2023-04-24T02:51:00;13.63;;;11.20;;
20441;SDS011;10380;52.102;20.614;2023-04-24T02:53:27;15.73;;;10.83;;
20441;SDS011;10380;52.102;20.614;2023-04-24T02:55:54;18.83;;;11.90;;
20441;SDS011;10380;52.102;20.614;2023-04-24T02:58:21;17.37;;;11.23;;
20441;SDS011;10380;52.102;20.614;2023-04-24T03:00:47;15.43;;;12.70;;
20441;SDS011;10380;52.102;20.614;2023-04-24T03:03:15;15.03;;;11.90;;
20441;SDS011;10380;52.102;20.614;2023-04-24T03:05:42;16.10;;;10.03;;
20441;SDS011;10380;52.102;20.614;2023-04-24T03:08:10;14.17;;;11.80;;
20441;SDS011;10380;52.102;20.614;2023-04-24T03:10:37;14.23;;;11.00;;
20441;SDS011;10380;52.102;20.614;2023-04-24T03:13:03;12.20;;;10.17;;
20441;SDS011;10380;52.102;20.614;2023-04-24T03:15:30;12.33;;;10.60;;
20441;SDS011;10380;52.102;20.614;2023-04-24T03:17:57;16.07;;;10.73;;
20441;SDS011;10380;52.102;20.614;2023-04-24T03:20:24;18.43;;;10.80;;
20441;SDS011;10380;52.102;20.614;2023-04-24T03:22:52;18.87;;;11.17;;
20441;SDS011;10380;52.102;20.614;2023-04-24T03:25:19;17.00;;;11.53;;
20441;SDS011;10380;52.102;20.614;2023-04-24T03:27:45;17.57;;;11.33;;
20441;SDS011;10380;52.102;20.614;2023-04-24T03:30:13;15.90;;;10.70;;
20441;SDS011;10380;52.102;20.614;2023-04-24T03:32:39;12.03;;;10.73;;
20441;SDS011;10380;52.102;20.614;2023-04-24T03:35:07;17.00;;;13.57;;
20441;SDS011;10380;52.102;20.614;2023-04-24T03:37:34;15.20;;;11.17;;
20441;SDS011;10380;52.102;20.614;2023-04-24T03:40:01;18.03;;;11.13;;
20441;SDS011;10380;52.102;20.614;2023-04-24T03:42:29;14.63;;;11.33;;
20441;SDS011;10380;52.102;20.614;2023-04-24T03:44:55;16.50;;;11.27;;
20441;SDS011;10380;52.102;20.614;2023-04-24T03:47:22;16.13;;;11.67;;
20441;SDS011;10380;52.102;20.614;2023-04-24T03:49:49;17.20;;;11.47;;
20441;SDS011;10380;52.102;20.614;2023-04-24T03:52:17;13.63;;;10.30;;
20441;SDS011;10380;52.102;20.614;2023-04-24T03:54:44;15.93;;;11.47;;
20441;SDS011;10380;52.102;20.614;2023-04-24T03:57:11;15.83;;;11.50;;
20441;SDS011;10380;52.102;20.614;2023-04-24T03:59:37;15.67;;;10.23;;
20441;SDS011;10380;52.102;20.614;2023-04-24T04:02:04;15.43;;;10.37;;
20441;SDS011;10380;52.102;20.614;2023-04-24T04:04:31;14.83;;;11.00;;
20441;SDS011;10380;52.102;20.614;2023-04-24T04:06:59;19.43;;;12.07;;
20441;SDS011;10380;52.102;20.614;2023-04-24T04:09:29;16.53;;;9.93;;
20441;SDS011;10380;52.102;20.614;2023-04-24T04:11:56;14.83;;;10.90;;
20441;SDS011;10380;52.102;20.614;2023-04-24T04:14:23;16.77;;;10.23;;
20441;SDS011;10380;52.102;20.614;2023-04-24T04:16:49;15.27;;;10.30;;
20441;SDS011;10380;52.102;20.614;2023-04-24T04:19:20;15.47;;;10.80;;
20441;SDS011;10380;52.102;20.614;2023-04-24T04:21:47;15.20;;;11.57;;
20441;SDS011;10380;52.102;20.614;2023-04-24T04:24:19;16.43;;;11.03;;
20441;SDS011;10380;52.102;20.614;2023-04-24T04:26:50;15.63;;;9.90;;
20441;SDS011;10380;52.102;20.614;2023-04-24T04:29:18;12.07;;;9.97;;
20441;SDS011;10380;52.102;20.614;2023-04-24T04:31:45;15.53;;;10.03;;
20441;SDS011;10380;52.102;20.614;2023-04-24T04:34:12;19.33;;;10.13;;
20441;SDS011;10380;52.102;20.614;2023-04-24T04:36:41;13.33;;;10.43;;
20441;SDS011;10380;52.102;20.614;2023-04-24T04:39:09;18.37;;;9.37;;
20441;SDS011;10380;52.102;20.614;2023-04-24T04:41:36;14.83;;;10.87;;
20441;SDS011;10380;52.102;20.614;2023-04-24T04:44:03;16.77;;;11.20;;
20441;SDS011;10380;52.102;20.614;2023-04-24T04:46:31;15.40;;;11.03;;
20441;SDS011;10380;52.102;20.614;2023-04-24T04:49:02;17.10;;;10.80;;
20441;SDS011;10380;52.102;20.614;2023-04-24T04:51:29;20.97;;;11.27;;
20441;SDS011;10380;52.102;20.614;2023-04-24T04:53:57;16.60;;;10.50;;
20441;SDS011;10380;52.102;20.614;2023-04-24T04:56:24;16.37;;;10.80;;
20441;SDS011;10380;52.102;20.614;2023-04-24T04:58:51;18.47;;;10.50;;
20441;SDS011;10380;52.102;20.614;2023-04-24T05:01:18;15.57;;;10.37;;
20441;SDS011;10380;52.102;20.614;2023-04-24T05:03:45;15.77;;;10.27;;
20441;SDS011;10380;52.102;20.614;2023-04-24T05:06:12;12.93;;;10.13;;
20441;SDS011;10380;52.102;20.614;2023-04-24T05:08:39;18.37;;;9.83;;
20441;SDS011;10380;52.102;20.614;2023-04-24T05:11:06;15.17;;;10.67;;
20441;SDS011;10380;52.102;20.614;2023-04-24T05:13:33;12.97;;;10.77;;
20441;SDS011;10380;52.102;20.614;2023-04-24T05:16:06;16.73;;;9.88;;
20441;SDS011;10380;52.102;20.614;2023-04-24T05:18:34;11.77;;;9.23;;
20441;SDS011;10380;52.102;20.614;2023-04-24T05:21:01;15.03;;;9.20;;
20441;SDS011;10380;52.102;20.614;2023-04-24T05:23:28;15.40;;;9.57;;
20441;SDS011;10380;52.102;20.614;2023-04-24T05:25:55;12.45;;;9.05;;
20441;SDS011;10380;52.102;20.614;2023-04-24T05:28:22;12.50;;;9.73;;
20441;SDS011;10380;52.102;20.614;2023-04-24T05:30:49;12.15;;;10.23;;
20441;SDS011;10380;52.102;20.614;2023-04-24T05:33:16;10.80;;;8.30;;
20441;SDS011;10380;52.102;20.614;2023-04-24T05:35:43;11.55;;;9.00;;
20441;SDS011;10380;52.102;20.614;2023-04-24T05:38:13;11.90;;;8.32;;
20441;SDS011;10380;52.102;20.614;2023-04-24T05:40:40;12.88;;;8.63;;
20441;SDS011;10380;52.102;20.614;2023-04-24T05:43:07;30.15;;;11.65;;
20441;SDS011;10380;52.102;20.614;2023-04-24T05:45:34;11.90;;;9.23;;
20441;SDS011;10380;52.102;20.614;2023-04-24T05:48:03;20.95;;;9.68;;
20441;SDS011;10380;52.102;20.614;2023-04-24T05:50:32;11.88;;;8.30;;
20441;SDS011;10380;52.102;20.614;2023-04-24T05:53:02;11.68;;;7.75;;
20441;SDS011;10380;52.102;20.614;2023-04-24T05:55:29;10.68;;;7.90;;
20441;SDS011;10380;52.102;20.614;2023-04-24T05:57:57;14.48;;;8.43;;
20441;SDS011;10380;52.102;20.614;2023-04-24T06:00:24;13.38;;;7.40;;
20441;SDS011;10380;52.102;20.614;2023-04-24T06:02:52;12.20;;;8.38;;
20441;SDS011;10380;52.102;20.614;2023-04-24T06:05:22;9.60;;;6.15;;
20441;SDS011;10380;52.102;20.614;2023-04-24T06:07:49;12.85;;;8.13;;
20441;SDS011;10380;52.102;20.614;2023-04-24T06:10:16;9.07;;;6.88;;
20441;SDS011;10380;52.102;20.614;2023-04-24T06:12:43;8.23;;;6.18;;
20441;SDS011;10380;52.102;20.614;2023-04-24T06:15:11;10.82;;;6.85;;
20441;SDS011;10380;52.102;20.614;2023-04-24T06:17:38;8.38;;;6.22;;
20441;SDS011;10380;52.102;20.614;2023-04-24T06:20:05;10.05;;;5.43;;
20441;SDS011;10380;52.102;20.614;2023-04-24T06:22:33;7.65;;;5.43;;
20441;SDS011;10380;52.102;20.614;2023-04-24T06:25:00;7.88;;;6.43;;
20441;SDS011;10380;52.102;20.614;2023-04-24T06:27:27;10.70;;;6.10;;
20441;SDS011;10380;52.102;20.614;2023-04-24T06:29:55;6.97;;;5.50;;
20441;SDS011;10380;52.102;20.614;2023-04-24T06:32:23;10.43;;;6.18;;
20441;SDS011;10380;52.102;20.614;2023-04-24T06:34:51;10.35;;;6.20;;
20441;SDS011;10380;52.102;20.614;2023-04-24T06:37:19;8.82;;;6.20;;
20441;SDS011;10380;52.102;20.614;2023-04-24T06:39:46;13.82;;;6.22;;
20441;SDS011;10380;52.102;20.614;2023-04-24T06:42:14;13.18;;;7.15;;
20441;SDS011;10380;52.102;20.614;2023-04-24T06:44:41;10.05;;;6.32;;
20441;SDS011;10380;52.102;20.614;2023-04-24T06:47:08;7.47;;;6.20;;
20441;SDS011;10380;52.102;20.614;2023-04-24T06:49:36;10.95;;;6.78;;
20441;SDS011;10380;52.102;20.614;2023-04-24T06:52:04;11.90;;;6.63;;
20441;SDS011;10380;52.102;20.614;2023-04-24T06:54:32;10.77;;;6.47;;
20441;SDS011;10380;52.102;20.614;2023-04-24T06:57:00;10.13;;;5.88;;
20441;SDS011;10380;52.102;20.614;2023-04-24T06:59:27;13.25;;;5.88;;
20441;SDS011;10380;52.102;20.614;2023-04-24T07:01:54;7.90;;;5.88;;
20441;SDS011;10380;52.102;20.614;2023-04-24T07:04:21;12.68;;;5.68;;
20441;SDS011;10380;52.102;20.614;2023-04-24T07:06:49;12.55;;;6.43;;
20441;SDS011;10380;52.102;20.614;2023-04-24T07:09:17;7.95;;;5.20;;
20441;SDS011;10380;52.102;20.614;2023-04-24T07:11:45;7.07;;;4.97;;
20441;SDS011;10380;52.102;20.614;2023-04-24T07:14:12;7.95;;;5.35;;
20441;SDS011;10380;52.102;20.614;2023-04-24T07:16:39;8.70;;;4.93;;
20441;SDS011;10380;52.102;20.614;2023-04-24T07:19:06;7.28;;;4.57;;
20441;SDS011;10380;52.102;20.614;2023-04-24T07:21:33;8.10;;;4.90;;
20441;SDS011;10380;52.102;20.614;2023-04-24T07:24:01;7.25;;;4.45;;
20441;SDS011;10380;52.102;20.614;2023-04-24T07:26:29;9.32;;;4.00;;
20441;SDS011;10380;52.102;20.614;2023-04-24T07:28:56;4.00;;;3.67;;
20441;SDS011;10380;52.102;20.614;2023-04-24T07:31:23;5.18;;;3.80;;
20441;SDS011;10380;52.102;20.614;2023-04-24T07:33:50;5.55;;;3.50;;
20441;SDS011;10380;52.102;20.614;2023-04-24T07:36:17;7.55;;;4.60;;
20441;SDS011;10380;52.102;20.614;2023-04-24T07:38:45;5.00;;;3.85;;
20441;SDS011;10380;52.102;20.614;2023-04-24T07:41:13;6.45;;;4.38;;
20441;SDS011;10380;52.102;20.614;2023-04-24T07:43:41;8.25;;;4.50;;
20441;SDS011;10380;52.102;20.614;2023-04-24T07:46:08;7.22;;;4.32;;
20441;SDS011;10380;52.102;20.614;2023-04-24T07:48:35;7.15;;;4.93;;
20441;SDS011;10380;52.102;20.614;2023-04-24T07:51:03;8.35;;;4.60;;
20441;SDS011;10380;52.102;20.614;2023-04-24T07:53:30;8.13;;;3.72;;
20441;SDS011;10380;52.102;20.614;2023-04-24T07:55:57;5.75;;;3.67;;
20441;SDS011;10380;52.102;20.614;2023-04-24T07:58:24;5.80;;;3.85;;
20441;SDS011;10380;52.102;20.614;2023-04-24T08:00:51;6.85;;;3.60;;
20441;SDS011;10380;52.102;20.614;2023-04-24T08:03:17;6.65;;;4.13;;
20441;SDS011;10380;52.102;20.614;2023-04-24T08:05:46;5.57;;;4.20;;
20441;SDS011;10380;52.102;20.614;2023-04-24T08:08:14;8.93;;;4.55;;
20441;SDS011;10380;52.102;20.614;2023-04-24T08:10:41;8.07;;;4.10;;
20441;SDS011;10380;52.102;20.614;2023-04-24T08:13:08;7.57;;;4.45;;
20441;SDS011;10380;52.102;20.614;2023-04-24T08:15:35;6.70;;;4.13;;
20441;SDS011;10380;52.102;20.614;2023-04-24T08:18:02;6.78;;;3.90;;
20441;SDS011;10380;52.102;20.614;2023-04-24T08:20:29;10.63;;;4.50;;
20441;SDS011;10380;52.102;20.614;2023-04-24T08:22:56;4.65;;;3.90;;
20441;SDS011;10380;52.102;20.614;2023-04-24T08:25:23;6.68;;;4.65;;
20441;SDS011;10380;52.102;20.614;2023-04-24T08:27:51;5.70;;;4.43;;
20441;SDS011;10380;52.102;20.614;2023-04-24T08:30:19;5.95;;;4.15;;
20441;SDS011;10380;52.102;20.614;2023-04-24T08:32:47;7.90;;;4.15;;
20441;SDS011;10380;52.102;20.614;2023-04-24T08:35:14;7.10;;;5.07;;
20441;SDS011;10380;52.102;20.614;2023-04-24T08:37:41;7.57;;;5.45;;
20441;SDS011;10380;52.102;20.614;2023-04-24T08:40:14;6.20;;;4.30;;
20441;SDS011;10380;52.102;20.614;2023-04-24T08:42:42;7.22;;;4.60;;
20441;SDS011;10380;52.102;20.614;2023-04-24T08:45:11;7.70;;;5.20;;
20441;SDS011;10380;52.102;20.614;2023-04-24T08:47:39;7.43;;;4.60;;
20441;SDS011;10380;52.102;20.614;2023-04-24T08:50:07;7.03;;;4.57;;
20441;SDS011;10380;52.102;20.614;2023-04-24T08:52:35;6.28;;;5.15;;
20441;SDS011;10380;52.102;20.614;2023-04-24T08:55:03;9.63;;;4.50;;
20441;SDS011;10380;52.102;20.614;2023-04-24T08:57:31;9.20;;;4.60;;
20441;SDS011;10380;52.102;20.614;2023-04-24T08:59:59;7.35;;;4.80;;
20441;SDS011;10380;52.102;20.614;2023-04-24T09:02:27;15.25;;;6.15;;
20441;SDS011;10380;52.102;20.614;2023-04-24T09:04:55;6.35;;;4.40;;
20441;SDS011;10380;52.102;20.614;2023-04-24T09:07:24;6.00;;;4.43;;
20441;SDS011;10380;52.102;20.614;2023-04-24T09:09:53;6.13;;;5.10;;
20441;SDS011;10380;52.102;20.614;2023-04-24T09:12:21;6.15;;;4.60;;
20441;SDS011;10380;52.102;20.614;2023-04-24T09:14:48;8.15;;;4.78;;
20441;SDS011;10380;52.102;20.614;2023-04-24T09:17:16;9.15;;;5.53;;
20441;SDS011;10380;52.102;20.614;2023-04-24T09:19:43;7.32;;;4.38;;
20441;SDS011;10380;52.102;20.614;2023-04-24T09:22:10;6.93;;;4.80;;
20441;SDS011;10380;52.102;20.614;2023-04-24T09:24:39;7.10;;;4.80;;
20441;SDS011;10380;52.102;20.614;2023-04-24T09:27:06;6.45;;;4.90;;
20441;SDS011;10380;52.102;20.614;2023-04-24T09:29:36;9.38;;;4.53;;
20441;SDS011;10380;52.102;20.614;2023-04-24T09:32:19;7.60;;;5.13;;
20441;SDS011;10380;52.102;20.614;2023-04-24T09:35:07;7.75;;;4.25;;
20441;SDS011;10380;52.102;20.614;2023-04-24T09:37:39;8.80;;;6.57;;
20441;SDS011;10380;52.102;20.614;2023-04-24T09:40:17;11.13;;;6.05;;
20441;SDS011;10380;52.102;20.614;2023-04-24T09:45:17;9.93;;;6.20;;
20441;SDS011;10380;52.102;20.614;2023-04-24T09:47:44;11.95;;;6.72;;
20441;SDS011;10380;52.102;20.614;2023-04-24T09:50:15;10.20;;;5.97;;
20441;SDS011;10380;52.102;20.614;2023-04-24T09:52:45;7.68;;;5.63;;
20441;SDS011;10380;52.102;20.614;2023-04-24T09:55:19;6.82;;;5.55;;
20441;SDS011;10380;52.102;20.614;2023-04-24T09:58:08;9.88;;;6.40;;
20441;SDS011;10380;52.102;20.614;2023-04-24T10:00:34;8.38;;;5.90;;
20441;SDS011;10380;52.102;20.614;2023-04-24T10:03:02;7.65;;;6.38;;
20441;SDS011;10380;52.102;20.614;2023-04-24T10:05:34;11.82;;;7.25;;
20441;SDS011;10380;52.102;20.614;2023-04-24T10:08:03;11.07;;;7.13;;
20441;SDS011;10380;52.102;20.614;2023-04-24T10:10:38;13.43;;;6.85;;
20441;SDS011;10380;52.102;20.614;2023-04-24T10:13:09;11.07;;;6.72;;
20441;SDS011;10380;52.102;20.614;2023-04-24T10:15:37;10.85;;;7.10;;
20441;SDS011;10380;52.102;20.614;2023-04-24T10:18:07;10.82;;;6.63;;
20441;SDS011;10380;52.102;20.614;2023-04-24T10:20:36;10.68;;;6.50;;
20441;SDS011;10380;52.102;20.614;2023-04-24T10:23:04;10.68;;;6.75;;
20441;SDS011;10380;52.102;20.614;2023-04-24T10:25:33;7.32;;;6.63;;
20441;SDS011;10380;52.102;20.614;2023-04-24T10:28:02;10.15;;;7.20;;
20441;SDS011;10380;52.102;20.614;2023-04-24T10:30:33;10.40;;;6.53;;
20441;SDS011;10380;52.102;20.614;2023-04-24T10:33:05;12.23;;;7.07;;
20441;SDS011;10380;52.102;20.614;2023-04-24T10:35:36;13.45;;;7.97;;
20441;SDS011;10380;52.102;20.614;2023-04-24T10:38:08;9.00;;;7.63;;
20441;SDS011;10380;52.102;20.614;2023-04-24T10:40:38;14.00;;;7.82;;
20441;SDS011;10380;52.102;20.614;2023-04-24T10:43:06;9.02;;;7.72;;
20441;SDS011;10380;52.102;20.614;2023-04-24T10:45:38;12.88;;;6.22;;
20441;SDS011;10380;52.102;20.614;2023-04-24T10:48:05;10.98;;;7.57;;
20441;SDS011;10380;52.102;20.614;2023-04-24T10:50:50;10.55;;;6.63;;
20441;SDS011;10380;52.102;20.614;2023-04-24T10:53:22;8.98;;;6.18;;
20441;SDS011;10380;52.102;20.614;2023-04-24T10:56:02;7.45;;;5.80;;
20441;SDS011;10380;52.102;20.614;2023-04-24T10:58:37;8.63;;;5.97;;
20441;SDS011;10380;52.102;20.614;2023-04-24T11:01:22;8.38;;;5.88;;
20441;SDS011;10380;52.102;20.614;2023-04-24T11:03:50;8.48;;;5.63;;
20441;SDS011;10380;52.102;20.614;2023-04-24T11:06:27;10.98;;;6.85;;
20441;SDS011;10380;52.102;20.614;2023-04-24T11:09:10;10.80;;;6.68;;
20441;SDS011;10380;52.102;20.614;2023-04-24T11:11:45;10.82;;;6.10;;
20441;SDS011;10380;52.102;20.614;2023-04-24T11:14:16;7.53;;;5.63;;
20441;SDS011;10380;52.102;20.614;2023-04-24T11:16:53;9.52;;;6.57;;
20441;SDS011;10380;52.102;20.614;2023-04-24T11:19:24;8.07;;;6.13;;
20441;SDS011;10380;52.102;20.614;2023-04-24T11:21:59;12.07;;;6.95;;
20441;SDS011;10380;52.102;20.614;2023-04-24T11:27:17;8.07;;;6.22;;
20441;SDS011;10380;52.102;20.614;2023-04-24T11:29:49;10.13;;;6.70;;
20441;SDS011;10380;52.102;20.614;2023-04-24T11:34:59;7.10;;;5.95;;
20441;SDS011;10380;52.102;20.614;2023-04-24T11:37:29;5.97;;;4.65;;
20441;SDS011;10380;52.102;20.614;2023-04-24T11:40:00;11.05;;;4.82;;
20441;SDS011;10380;52.102;20.614;2023-04-24T11:42:28;6.25;;;5.38;;
20441;SDS011;10380;52.102;20.614;2023-04-24T11:44:59;7.65;;;5.45;;
20441;SDS011;10380;52.102;20.614;2023-04-24T11:47:29;6.15;;;4.80;;
20441;SDS011;10380;52.102;20.614;2023-04-24T11:49:57;5.35;;;4.82;;
20441;SDS011;10380;52.102;20.614;2023-04-24T11:52:26;6.72;;;4.95;;
20441;SDS011;10380;52.102;20.614;2023-04-24T11:54:53;7.18;;;5.15;;
20441;SDS011;10380;52.102;20.614;2023-04-24T11:57:24;6.93;;;5.30;;
20441;SDS011;10380;52.102;20.614;2023-04-24T12:00:00;9.23;;;5.13;;
20441;SDS011;10380;52.102;20.614;2023-04-24T12:02:30;6.45;;;4.78;;
20441;SDS011;10380;52.102;20.614;2023-04-24T12:04:58;5.50;;;5.00;;
20441;SDS011;10380;52.102;20.614;2023-04-24T12:07:25;7.80;;;4.60;;
20441;SDS011;10380;52.102;20.614;2023-04-24T12:09:58;10.50;;;4.57;;
20441;SDS011;10380;52.102;20.614;2023-04-24T12:12:29;6.55;;;4.47;;
20441;SDS011;10380;52.102;20.614;2023-04-24T12:14:56;7.40;;;4.38;;
20441;SDS011;10380;52.102;20.614;2023-04-24T12:17:29;12.20;;;5.32;;
20441;SDS011;10380;52.102;20.614;2023-04-24T12:20:01;6.53;;;4.57;;
20441;SDS011;10380;52.102;20.614;2023-04-24T12:22:50;8.45;;;4.53;;
20441;SDS011;10380;52.102;20.614;2023-04-24T12:25:18;7.63;;;5.10;;
20441;SDS011;10380;52.102;20.614;2023-04-24T12:27:45;9.00;;;4.78;;
20441;SDS011;10380;52.102;20.614;2023-04-24T12:30:16;6.32;;;4.25;;
20441;SDS011;10380;52.102;20.614;2023-04-24T12:32:47;7.85;;;4.55;;
20441;SDS011;10380;52.102;20.614;2023-04-24T12:35:22;10.52;;;5.00;;
20441;SDS011;10380;52.102;20.614;2023-04-24T12:37:50;36.15;;;5.50;;
20441;SDS011;10380;52.102;20.614;2023-04-24T12:40:17;21.80;;;4.50;;
20441;SDS011;10380;52.102;20.614;2023-04-24T12:42:49;22.83;;;4.50;;
20441;SDS011;10380;52.102;20.614;2023-04-24T12:45:17;7.57;;;3.55;;
20441;SDS011;10380;52.102;20.614;2023-04-24T12:47:45;24.58;;;4.05;;
20441;SDS011;10380;52.102;20.614;2023-04-24T12:50:14;32.75;;;5.25;;
20441;SDS011;10380;52.102;20.614;2023-04-24T12:52:42;10.95;;;2.75;;
20441;SDS011;10380;52.102;20.614;2023-04-24T12:55:10;13.60;;;3.40;;
20441;SDS011;10380;52.102;20.614;2023-04-24T12:57:38;12.45;;;3.25;;
20441;SDS011;10380;52.102;20.614;2023-04-24T13:00:07;18.15;;;4.15;;
20441;SDS011;10380;52.102;20.614;2023-04-24T13:02:34;10.27;;;3.13;;
20441;SDS011;10380;52.102;20.614;2023-04-24T13:05:03;4.30;;;2.75;;
20441;SDS011;10380;52.102;20.614;2023-04-24T13:07:30;6.65;;;2.95;;
20441;SDS011;10380;52.102;20.614;2023-04-24T13:09:57;5.60;;;2.55;;
20441;SDS011;10380;52.102;20.614;2023-04-24T13:12:24;7.32;;;3.35;;
20441;SDS011;10380;52.102;20.614;2023-04-24T13:14:52;4.97;;;2.15;;
20441;SDS011;10380;52.102;20.614;2023-04-24T13:17:19;3.90;;;2.05;;
20441;SDS011;10380;52.102;20.614;2023-04-24T13:19:49;4.30;;;2.55;;
20441;SDS011;10380;52.102;20.614;2023-04-24T13:22:18;5.43;;;2.63;;
20441;SDS011;10380;52.102;20.614;2023-04-24T13:24:45;5.45;;;3.20;;
20441;SDS011;10380;52.102;20.614;2023-04-24T13:27:11;4.10;;;2.83;;
20441;SDS011;10380;52.102;20.614;2023-04-24T13:29:38;4.90;;;3.00;;
20441;SDS011;10380;52.102;20.614;2023-04-24T13:32:05;3.47;;;2.80;;
20441;SDS011;10380;52.102;20.614;2023-04-24T13:34:32;6.45;;;3.47;;
20441;SDS011;10380;52.102;20.614;2023-04-24T13:37:00;5.75;;;3.35;;
20441;SDS011;10380;52.102;20.614;2023-04-24T13:39:30;4.22;;;2.85;;
20441;SDS011;10380;52.102;20.614;2023-04-24T13:41:57;3.50;;;2.60;;
20441;SDS011;10380;52.102;20.614;2023-04-24T13:44:24;4.18;;;2.95;;
20441;SDS011;10380;52.102;20.614;2023-04-24T13:46:52;3.60;;;2.97;;
20441;SDS011;10380;52.102;20.614;2023-04-24T13:49:20;4.50;;;2.80;;
20441;SDS011;10380;52.102;20.614;2023-04-24T13:51:47;3.50;;;2.60;;
20441;SDS011;10380;52.102;20.614;2023-04-24T13:54:14;5.35;;;2.95;;
20441;SDS011;10380;52.102;20.614;2023-04-24T13:56:42;4.07;;;2.95;;
20441;SDS011;10380;52.102;20.614;2023-04-24T13:59:08;5.05;;;3.58;;
20441;SDS011;10380;52.102;20.614;2023-04-24T14:01:35;4.97;;;3.45;;
20441;SDS011;10380;52.102;20.614;2023-04-24T14:04:02;6.90;;;3.53;;
20441;SDS011;10380;52.102;20.614;2023-04-24T14:06:30;3.90;;;3.53;;
20441;SDS011;10380;52.102;20.614;2023-04-24T14:08:57;4.22;;;3.70;;
20441;SDS011;10380;52.102;20.614;2023-04-24T14:11:24;7.25;;;3.00;;
20441;SDS011;10380;52.102;20.614;2023-04-24T14:13:53;2.85;;;2.58;;
20441;SDS011;10380;52.102;20.614;2023-04-24T14:16:23;5.53;;;2.45;;
20441;SDS011;10380;52.102;20.614;2023-04-24T14:18:51;2.75;;;2.35;;
20441;SDS011;10380;52.102;20.614;2023-04-24T14:21:18;5.80;;;3.25;;
20441;SDS011;10380;52.102;20.614;2023-04-24T14:23:44;4.03;;;2.78;;
20441;SDS011;10380;52.102;20.614;2023-04-24T14:26:12;5.07;;;3.17;;
20441;SDS011;10380;52.102;20.614;2023-04-24T14:28:38;3.40;;;3.10;;
20441;SDS011;10380;52.102;20.614;2023-04-24T14:31:06;4.15;;;3.25;;
20441;SDS011;10380;52.102;20.614;2023-04-24T14:33:33;6.15;;;3.08;;
20441;SDS011;10380;52.102;20.614;2023-04-24T14:36:00;6.97;;;3.63;;
20441;SDS011;10380;52.102;20.614;2023-04-24T14:38:28;4.40;;;4.00;;